Time;durP1;ratioP1;P1;durP2;ratioP2;P2;SDS_P1;SDS_P2;PMS_P1;PMS_P2;Temp;Humidity;BMP_temperature;BMP_pressure;BME280_temperature;BME280_humidity;BME280_pressure;Samples;Min_cycle;Max_cycle;Signal;HPM_P1;HPM_P2
2022/12/25 00:02:40;;;;;;;4.03;3.77;;;;;;;;;;6238643;28;20298;-78
2022/12/25 00:05:45;;;;;;;3.70;3.50;;;;;;;;;;6238065;28;20270;-77
2022/12/25 00:08:51;;;;;;;3.90;3.63;;;;;;;;;;6238557;28;20266;-77
2022/12/25 00:11:56;;;;;;;3.87;3.50;;;;;;;;;;6255122;28;20440;-77
2022/12/25 00:15:02;;;;;;;3.73;3.53;;;;;;;;;;6262457;28;20293;-77
2022/12/25 00:18:09;;;;;;;3.27;3.17;;;;;;;;;;6262600;28;20457;-77
2022/12/25 00:21:15;;;;;;;3.40;3.20;;;;;;;;;;6273085;28;20237;-78
2022/12/25 00:24:21;;;;;;;3.10;3.00;;;;;;;;;;6263498;28;20271;-77
2022/12/25 00:27:26;;;;;;;3.23;3.13;;;;;;;;;;6261515;28;20271;-77
2022/12/25 00:30:31;;;;;;;3.20;3.10;;;;;;;;;;6262417;28;20274;-79
2022/12/25 00:33:39;;;;;;;3.37;3.17;;;;;;;;;;6262060;28;20274;-76
2022/12/25 00:36:45;;;;;;;3.23;3.07;;;;;;;;;;6261831;28;20293;-78
2022/12/25 00:39:50;;;;;;;3.27;3.07;;;;;;;;;;6260593;28;20274;-77
2022/12/25 00:42:55;;;;;;;4.00;3.60;;;;;;;;;;6262202;28;20357;-77
2022/12/25 00:46:02;;;;;;;3.40;3.30;;;;;;;;;;6260613;28;20277;-77
2022/12/25 00:49:09;;;;;;;3.20;3.03;;;;;;;;;;6261847;28;20279;-78
2022/12/25 00:52:15;;;;;;;3.43;3.33;;;;;;;;;;6261911;28;20362;-78
2022/12/25 00:55:20;;;;;;;3.67;3.37;;;;;;;;;;6261670;28;20289;-76
2022/12/25 00:58:27;;;;;;;3.57;3.37;;;;;;;;;;6261845;28;20272;-77
2022/12/25 01:01:32;;;;;;;3.40;3.30;;;;;;;;;;6260993;28;20339;-78
2022/12/25 01:04:39;;;;;;;3.27;3.07;;;;;;;;;;6260906;28;20303;-78
2022/12/25 01:07:44;;;;;;;3.73;3.40;;;;;;;;;;6261405;28;20577;-78
2022/12/25 01:10:54;;;;;;;3.67;3.47;;;;;;;;;;6261370;28;20266;-78
2022/12/25 01:13:59;;;;;;;3.57;3.37;;;;;;;;;;6260321;28;20269;-78
2022/12/25 01:17:05;;;;;;;3.20;3.10;;;;;;;;;;6259867;28;20298;-77
2022/12/25 01:20:15;;;;;;;3.97;3.13;;;;;;;;;;6261097;28;20267;-77
2022/12/25 01:23:20;;;;;;;3.73;3.47;;;;;;;;;;6260671;28;20287;-77
2022/12/25 01:26:27;;;;;;;3.60;3.33;;;;;;;;;;6261335;28;20270;-78
2022/12/25 01:29:32;;;;;;;3.63;3.40;;;;;;;;;;6260512;28;20274;-78
2022/12/25 01:32:37;;;;;;;3.40;3.20;;;;;;;;;;6268070;28;20261;-78
2022/12/25 01:35:44;;;;;;;3.07;2.97;;;;;;;;;;6265025;28;20278;-78
2022/12/25 01:38:50;;;;;;;3.47;3.30;;;;;;;;;;6260549;28;20270;-77
2022/12/25 01:41:55;;;;;;;3.83;3.43;;;;;;;;;;6260831;28;20275;-78
2022/12/25 01:45:30;;;;;;;4.77;3.10;;;;;;;;;;6260872;28;20270;-78
2022/12/25 01:48:37;;;;;;;3.67;3.33;;;;;;;;;;6257065;28;20274;-77
2022/12/25 01:51:46;;;;;;;3.80;3.50;;;;;;;;;;6260904;28;20279;-78
2022/12/25 01:54:54;;;;;;;3.20;3.10;;;;;;;;;;6260305;28;20307;-77
2022/12/25 01:57:59;;;;;;;2.80;2.77;;;;;;;;;;6260577;28;20543;-77
2022/12/25 02:01:04;;;;;;;3.00;2.90;;;;;;;;;;6260595;28;20274;-78
2022/12/25 02:04:17;;;;;;;3.00;2.90;;;;;;;;;;6273481;22;20315;-85
2022/12/25 02:07:26;;;;;;;3.30;3.20;;;;;;;;;;6261441;28;20275;-84
2022/12/25 02:10:31;;;;;;;3.57;3.30;;;;;;;;;;6263250;28;20267;-82
2022/12/25 02:13:37;;;;;;;2.93;2.83;;;;;;;;;;6262507;28;20271;-85
2022/12/25 02:16:44;;;;;;;3.40;3.13;;;;;;;;;;6263863;28;20290;-83
2022/12/25 02:20:30;;;;;;;2.73;2.63;;;;;;;;;;6261510;28;20459;-85
2022/12/25 02:24:00;;;;;;;3.23;3.03;;;;;;;;;;6259441;28;20541;-82
2022/12/25 02:27:14;;;;;;;2.43;2.33;;;;;;;;;;6260831;28;20572;-83
2022/12/25 02:30:21;;;;;;;3.47;2.50;;;;;;;;;;6267140;28;20251;-81
2022/12/25 02:37:00;;;;;;;2.77;2.77;;;;;;;;;;6275573;28;20275;-83
2022/12/25 02:40:13;;;;;;;2.70;2.60;;;;;;;;;;6245639;28;20556;-83
2022/12/25 03:07:13;;;;;;;2.70;2.60;;;;;;;;;;6240357;28;20287;-84
2022/12/25 03:13:44;;;;;;;2.10;2.10;;;;;;;;;;6262114;28;20363;-84
2022/12/25 03:16:52;;;;;;;2.53;2.53;;;;;;;;;;6264349;28;20377;-84
2022/12/25 03:26:56;;;;;;;2.90;2.40;;;;;;;;;;6264994;28;20275;-83
2022/12/25 03:33:32;;;;;;;2.60;2.60;;;;;;;;;;6262299;28;20274;-83
2022/12/25 03:37:05;;;;;;;2.57;2.47;;;;;;;;;;6264307;28;20479;-82
2022/12/25 04:38:13;;;;;;;2.20;2.20;;;;;;;;;;6261245;28;20297;-84
2022/12/25 04:41:18;;;;;;;2.50;2.40;;;;;;;;;;6261387;28;20283;-83
2022/12/25 04:44:25;;;;;;;2.60;2.50;;;;;;;;;;6262822;28;20267;-83
2022/12/25 04:47:30;;;;;;;2.60;2.50;;;;;;;;;;6276781;28;20224;-83
2022/12/25 04:50:35;;;;;;;2.10;2.10;;;;;;;;;;6278922;28;20227;-82
2022/12/25 04:53:40;;;;;;;2.30;2.17;;;;;;;;;;6278415;28;20224;-82
2022/12/25 04:56:45;;;;;;;2.50;2.40;;;;;;;;;;6277234;28;20284;-84
2022/12/25 04:59:52;;;;;;;2.27;2.27;;;;;;;;;;6278136;28;20215;-85
2022/12/25 05:02:58;;;;;;;2.40;2.30;;;;;;;;;;6271748;28;20271;-83
2022/12/25 05:06:05;;;;;;;2.00;2.00;;;;;;;;;;6269718;28;20290;-84
2022/12/25 05:09:12;;;;;;;2.60;2.50;;;;;;;;;;6268608;28;20275;-84
2022/12/25 05:12:17;;;;;;;2.20;2.20;;;;;;;;;;6268611;28;20271;-84
2022/12/25 05:15:24;;;;;;;2.10;2.10;;;;;;;;;;6265812;28;20267;-86
2022/12/25 05:18:29;;;;;;;2.03;2.03;;;;;;;;;;6261756;28;20290;-83
2022/12/25 05:21:35;;;;;;;2.27;2.27;;;;;;;;;;6262184;28;20267;-84
2022/12/25 05:24:40;;;;;;;2.03;2.03;;;;;;;;;;6261051;28;20275;-84
2022/12/25 05:27:45;;;;;;;2.40;2.30;;;;;;;;;;6261460;28;20278;-84
2022/12/25 05:30:59;;;;;;;2.10;1.93;;;;;;;;;;6261814;28;20267;-84
2022/12/25 05:34:04;;;;;;;2.23;2.13;;;;;;;;;;6261800;28;20454;-84
2022/12/25 05:37:10;;;;;;;2.17;2.17;;;;;;;;;;6261096;28;20382;-84
2022/12/25 05:40:15;;;;;;;2.57;2.53;;;;;;;;;;6261321;28;20587;-84
2022/12/25 05:43:20;;;;;;;2.57;2.57;;;;;;;;;;6261388;28;20274;-83
2022/12/25 05:46:27;;;;;;;2.00;2.00;;;;;;;;;;6261800;28;20278;-84
2022/12/25 05:49:32;;;;;;;2.30;2.00;;;;;;;;;;6261629;28;20271;-84
2022/12/25 05:52:37;;;;;;;2.50;2.37;;;;;;;;;;6263734;28;20274;-84
2022/12/25 05:55:44;;;;;;;2.20;2.20;;;;;;;;;;6262853;28;20275;-84
2022/12/25 05:58:49;;;;;;;2.00;1.90;;;;;;;;;;6264266;28;20286;-83
2022/12/25 06:01:56;;;;;;;2.30;2.30;;;;;;;;;;6245882;28;20275;-84
2022/12/25 06:05:02;;;;;;;2.50;2.40;;;;;;;;;;6261827;28;20292;-83
2022/12/25 06:08:07;;;;;;;2.57;2.57;;;;;;;;;;6263520;28;20272;-83
2022/12/25 06:11:14;;;;;;;2.00;2.00;;;;;;;;;;6263329;28;20267;-84
2022/12/25 06:14:19;;;;;;;2.30;2.20;;;;;;;;;;6262000;28;20271;-84
2022/12/25 06:17:27;;;;;;;2.10;2.10;;;;;;;;;;6261147;28;20299;-85
2022/12/25 06:20:32;;;;;;;2.10;2.10;;;;;;;;;;6261550;28;20279;-84
2022/12/25 06:23:38;;;;;;;2.33;2.33;;;;;;;;;;6261448;28;20266;-83
2022/12/25 06:26:43;;;;;;;2.10;2.10;;;;;;;;;;6260913;28;20271;-84
2022/12/25 06:29:48;;;;;;;2.10;2.10;;;;;;;;;;6261388;28;20278;-84
2022/12/25 06:32:55;;;;;;;2.20;2.20;;;;;;;;;;6262761;28;20459;-84
2022/12/25 06:36:05;;;;;;;2.30;2.17;;;;;;;;;;6273475;28;20259;-83
2022/12/25 06:39:11;;;;;;;2.27;2.27;;;;;;;;;;6281544;28;20276;-83
2022/12/25 06:42:17;;;;;;;2.77;2.57;;;;;;;;;;6275830;28;20239;-85
2022/12/25 06:45:22;;;;;;;2.60;2.50;;;;;;;;;;6267058;28;20267;-83
2022/12/25 06:48:29;;;;;;;2.40;2.40;;;;;;;;;;6266679;28;20271;-84
2022/12/25 06:51:34;;;;;;;2.17;2.17;;;;;;;;;;6264615;28;20450;-84
2022/12/25 06:54:39;;;;;;;2.20;2.20;;;;;;;;;;6265349;28;20268;-84
2022/12/25 06:57:45;;;;;;;2.33;2.33;;;;;;;;;;6265162;28;20294;-83
2022/12/25 07:00:51;;;;;;;2.43;2.33;;;;;;;;;;6265135;28;20276;-83
2022/12/25 07:03:59;;;;;;;2.33;2.23;;;;;;;;;;6265069;28;20296;-83
2022/12/25 07:07:05;;;;;;;2.43;2.23;;;;;;;;;;6263720;28;20534;-84
2022/12/25 07:10:13;;;;;;;2.03;2.03;;;;;;;;;;6264299;28;20279;-84
2022/12/25 07:13:18;;;;;;;2.50;2.33;;;;;;;;;;6263169;28;20575;-83
2022/12/25 07:16:24;;;;;;;3.43;2.60;;;;;;;;;;6265345;28;20459;-84
2022/12/25 07:19:31;;;;;;;2.60;2.60;;;;;;;;;;6265515;28;20295;-84
2022/12/25 07:22:36;;;;;;;2.50;2.50;;;;;;;;;;6265029;28;20270;-84
2022/12/25 07:25:41;;;;;;;2.30;2.30;;;;;;;;;;6266398;28;20275;-84
2022/12/25 07:28:46;;;;;;;2.70;2.60;;;;;;;;;;6265146;28;20555;-84
2022/12/25 07:31:52;;;;;;;2.57;2.57;;;;;;;;;;6264892;28;20558;-83
2022/12/25 07:34:58;;;;;;;2.30;2.20;;;;;;;;;;6262872;28;20263;-83
2022/12/25 07:38:04;;;;;;;2.40;2.40;;;;;;;;;;6264488;28;20299;-84
2022/12/25 07:41:11;;;;;;;3.13;2.50;;;;;;;;;;6266732;28;20271;-84
2022/12/25 07:44:17;;;;;;;2.50;2.30;;;;;;;;;;6268083;28;20275;-84
2022/12/25 07:47:22;;;;;;;2.50;2.40;;;;;;;;;;6265474;28;20283;-83
2022/12/25 07:50:29;;;;;;;2.50;2.40;;;;;;;;;;6262925;28;20270;-83
2022/12/25 07:53:35;;;;;;;2.87;2.77;;;;;;;;;;6263147;28;20275;-82
2022/12/25 07:56:40;;;;;;;2.97;2.87;;;;;;;;;;6264790;28;20449;-84
2022/12/25 07:59:46;;;;;;;2.80;2.70;;;;;;;;;;6263571;28;20299;-85
2022/12/25 08:02:51;;;;;;;3.00;2.70;;;;;;;;;;6263937;28;20382;-82
2022/12/25 08:06:01;;;;;;;3.03;2.90;;;;;;;;;;6262991;28;20296;-83
2022/12/25 08:09:07;;;;;;;2.90;2.80;;;;;;;;;;6262841;28;20439;-83
2022/12/25 08:12:13;;;;;;;3.40;3.20;;;;;;;;;;6262318;28;20267;-85
2022/12/25 08:15:18;;;;;;;3.00;2.90;;;;;;;;;;6263823;28;20360;-84
2022/12/25 08:18:24;;;;;;;3.23;3.13;;;;;;;;;;6261992;28;20293;-84
2022/12/25 08:21:35;;;;;;;3.60;3.40;;;;;;;;;;6263418;28;20358;-84
2022/12/25 08:24:41;;;;;;;3.50;3.40;;;;;;;;;;6263327;28;20275;-84
2022/12/25 08:27:47;;;;;;;3.27;3.17;;;;;;;;;;6262042;28;20454;-84
2022/12/25 08:30:52;;;;;;;3.53;3.23;;;;;;;;;;6262842;28;20280;-83
2022/12/25 08:33:58;;;;;;;4.20;3.87;;;;;;;;;;6262808;28;20278;-85
2022/12/25 08:37:05;;;;;;;3.43;3.33;;;;;;;;;;6262733;28;20271;-84
2022/12/25 08:40:12;;;;;;;3.57;3.40;;;;;;;;;;6249407;28;20279;-84
2022/12/25 08:43:18;;;;;;;3.80;3.60;;;;;;;;;;6303076;28;20219;-82
2022/12/25 08:46:23;;;;;;;3.70;3.50;;;;;;;;;;6303017;28;20230;-82
2022/12/25 08:49:28;;;;;;;4.47;4.13;;;;;;;;;;6299922;28;20233;-82
2022/12/25 08:52:35;;;;;;;4.03;3.83;;;;;;;;;;6296106;28;20266;-83
2022/12/25 08:55:40;;;;;;;4.10;3.80;;;;;;;;;;6291264;28;20274;-83
2022/12/25 08:58:47;;;;;;;4.03;3.83;;;;;;;;;;6286987;28;20289;-84
2022/12/25 09:01:52;;;;;;;3.73;3.43;;;;;;;;;;6269340;28;20271;-84
2022/12/25 09:04:57;;;;;;;3.93;3.63;;;;;;;;;;6286272;28;20304;-83
2022/12/25 09:08:04;;;;;;;3.73;3.53;;;;;;;;;;6288568;28;20274;-83
2022/12/25 09:11:12;;;;;;;3.40;3.20;;;;;;;;;;6285702;28;20274;-84
2022/12/25 09:14:18;;;;;;;3.87;3.57;;;;;;;;;;6261667;28;20275;-84
2022/12/25 09:17:23;;;;;;;3.70;3.50;;;;;;;;;;6261422;28;20464;-83
2022/12/25 09:20:28;;;;;;;4.20;3.83;;;;;;;;;;6261604;28;20297;-83
2022/12/25 09:23:35;;;;;;;4.20;4.00;;;;;;;;;;6261861;28;20401;-83
2022/12/25 09:26:40;;;;;;;4.33;4.03;;;;;;;;;;6261544;28;20551;-83
2022/12/25 09:29:46;;;;;;;5.03;4.50;;;;;;;;;;6261497;28;20281;-84
2022/12/25 09:32:51;;;;;;;4.57;4.37;;;;;;;;;;6262085;28;20278;-84
2022/12/25 09:35:58;;;;;;;4.23;3.87;;;;;;;;;;6261178;28;20410;-85
2022/12/25 09:39:06;;;;;;;5.20;4.80;;;;;;;;;;6261177;28;20300;-84
2022/12/25 09:42:17;;;;;;;6.13;4.93;;;;;;;;;;6243405;28;20439;-83
2022/12/25 09:45:26;;;;;;;5.60;4.83;;;;;;;;;;6261218;28;20272;-84
2022/12/25 09:48:34;;;;;;;6.57;5.47;;;;;;;;;;6261921;28;20283;-84
2022/12/25 09:51:41;;;;;;;10.77;6.90;;;;;;;;;;6262997;28;20466;-83
2022/12/25 09:54:53;;;;;;;6.93;5.63;;;;;;;;;;6263237;28;20451;-82
2022/12/25 09:58:01;;;;;;;7.93;6.53;;;;;;;;;;6262607;28;20268;-83
2022/12/25 10:01:15;;;;;;;10.80;7.03;;;;;;;;;;6262809;28;20282;-83
2022/12/25 10:04:32;;;;;;;9.00;6.60;;;;;;;;;;6255626;28;20323;-83
2022/12/25 10:07:49;;;;;;;9.53;6.20;;;;;;;;;;6290197;28;20536;-83
2022/12/25 10:11:04;;;;;;;6.70;5.90;;;;;;;;;;6293595;28;20278;-83
2022/12/25 10:14:21;;;;;;;8.50;6.37;;;;;;;;;;6268088;28;20276;-84
2022/12/25 10:17:35;;;;;;;6.97;6.37;;;;;;;;;;6270354;28;20278;-84
2022/12/25 10:20:45;;;;;;;10.20;6.20;;;;;;;;;;6268347;28;20295;-83
2022/12/25 10:23:54;;;;;;;15.80;6.43;;;;;;;;;;6268054;28;20266;-83
2022/12/25 10:27:03;;;;;;;6.17;5.63;;;;;;;;;;6268114;28;20275;-82
2022/12/25 10:30:15;;;;;;;6.10;5.23;;;;;;;;;;6268867;28;20282;-84
2022/12/25 10:33:21;;;;;;;8.67;5.53;;;;;;;;;;6267285;28;20267;-83
2022/12/25 10:36:29;;;;;;;6.43;5.47;;;;;;;;;;6267577;28;20283;-84
2022/12/25 10:39:34;;;;;;;6.63;5.90;;;;;;;;;;6249950;28;20586;-83
2022/12/25 10:42:52;;;;;;;6.20;5.60;;;;;;;;;;6267403;28;20271;-84
2022/12/25 10:45:58;;;;;;;5.73;5.03;;;;;;;;;;6267869;28;20305;-83
2022/12/25 10:49:04;;;;;;;6.77;5.67;;;;;;;;;;6249976;28;20488;-83
2022/12/25 10:52:20;;;;;;;6.07;5.57;;;;;;;;;;6267413;28;20275;-84
2022/12/25 10:55:25;;;;;;;7.00;6.27;;;;;;;;;;6266173;28;20266;-83
2022/12/25 10:58:35;;;;;;;8.03;5.40;;;;;;;;;;6266992;28;20276;-83
2022/12/25 11:01:40;;;;;;;6.43;5.83;;;;;;;;;;6265872;28;20314;-83
2022/12/25 11:04:45;;;;;;;6.50;5.77;;;;;;;;;;6253823;28;20303;-83
2022/12/25 11:07:53;;;;;;;8.20;6.40;;;;;;;;;;6225625;28;20276;-82
2022/12/25 11:11:04;;;;;;;10.00;7.13;;;;;;;;;;6245812;28;20279;-83
2022/12/25 11:14:19;;;;;;;10.30;7.30;;;;;;;;;;6238612;28;20272;-84
2022/12/25 11:17:26;;;;;;;10.10;6.67;;;;;;;;;;6246747;28;20266;-84
2022/12/25 11:20:32;;;;;;;9.00;7.30;;;;;;;;;;6244041;28;20291;-83
2022/12/25 11:23:44;;;;;;;9.43;7.03;;;;;;;;;;6229171;28;20267;-83
2022/12/25 11:26:52;;;;;;;12.43;7.20;;;;;;;;;;6258543;28;20274;-83
2022/12/25 11:30:03;;;;;;;9.23;7.03;;;;;;;;;;6266477;28;20338;-83
2022/12/25 11:33:13;;;;;;;8.60;6.97;;;;;;;;;;6264861;28;20270;-83
2022/12/25 11:36:23;;;;;;;7.87;6.63;;;;;;;;;;6265765;28;20356;-85
2022/12/25 11:39:30;;;;;;;7.03;6.37;;;;;;;;;;6266064;28;20271;-83
2022/12/25 11:42:37;;;;;;;7.97;6.30;;;;;;;;;;6266106;28;20288;-83
2022/12/25 11:45:48;;;;;;;7.77;6.97;;;;;;;;;;6248922;28;20256;-83
2022/12/25 11:48:56;;;;;;;6.70;6.07;;;;;;;;;;6265786;28;20274;-83
2022/12/25 11:52:01;;;;;;;9.50;6.87;;;;;;;;;;6264941;28;20580;-84
2022/12/25 11:55:15;;;;;;;7.23;6.50;;;;;;;;;;6264811;28;20373;-84
2022/12/25 11:58:23;;;;;;;10.40;7.03;;;;;;;;;;6265828;28;20271;-84
2022/12/25 12:01:32;;;;;;;12.03;7.83;;;;;;;;;;6265798;28;20275;-84
2022/12/25 12:04:43;;;;;;;11.37;7.30;;;;;;;;;;6277710;28;20613;-83
2022/12/25 12:07:55;;;;;;;9.87;7.30;;;;;;;;;;6290398;28;20554;-83
2022/12/25 12:11:17;;;;;;;11.97;7.83;;;;;;;;;;6290174;28;20274;-83
2022/12/25 12:14:32;;;;;;;9.03;7.07;;;;;;;;;;6265316;28;20458;-85
2022/12/25 12:17:39;;;;;;;10.00;7.73;;;;;;;;;;6265268;28;20279;-83
2022/12/25 12:20:45;;;;;;;11.40;7.87;;;;;;;;;;6263168;28;20295;-83
2022/12/25 12:23:54;;;;;;;10.23;7.33;;;;;;;;;;6264452;28;20272;-83
2022/12/25 12:27:04;;;;;;;11.07;7.60;;;;;;;;;;6279842;28;20270;-83
2022/12/25 12:30:24;;;;;;;9.17;7.00;;;;;;;;;;6265972;28;20270;-84
2022/12/25 12:33:36;;;;;;;10.50;7.23;;;;;;;;;;6268283;28;20271;-82
2022/12/25 12:36:42;;;;;;;10.23;7.33;;;;;;;;;;6267454;28;20270;-83
2022/12/25 12:39:52;;;;;;;9.53;7.17;;;;;;;;;;6268991;28;20437;-84
2022/12/25 12:42:58;;;;;;;10.33;7.37;;;;;;;;;;6264774;28;20429;-84
2022/12/25 12:46:07;;;;;;;10.33;7.17;;;;;;;;;;6263727;28;20290;-83
2022/12/25 12:49:23;;;;;;;8.87;6.47;;;;;;;;;;6264766;28;20274;-84
2022/12/25 12:52:33;;;;;;;8.70;6.67;;;;;;;;;;6264158;28;20279;-82
2022/12/25 12:55:39;;;;;;;7.77;6.03;;;;;;;;;;6279066;28;20281;-84
2022/12/25 12:58:49;;;;;;;8.00;5.70;;;;;;;;;;6265121;28;20444;-83
2022/12/25 13:02:05;;;;;;;6.33;5.73;;;;;;;;;;6265447;28;20295;-83
2022/12/25 13:05:20;;;;;;;7.53;5.70;;;;;;;;;;6263814;28;20297;-83
2022/12/25 13:08:33;;;;;;;6.30;5.70;;;;;;;;;;6265927;28;20279;-84
2022/12/25 13:11:41;;;;;;;5.83;4.87;;;;;;;;;;6267023;28;20466;-83
2022/12/25 13:14:48;;;;;;;5.33;4.83;;;;;;;;;;6302810;28;20454;-83
2022/12/25 13:18:01;;;;;;;4.90;4.50;;;;;;;;;;6287424;28;20273;-84
2022/12/25 13:21:17;;;;;;;4.70;4.30;;;;;;;;;;6314479;28;20233;-83
2022/12/25 13:24:24;;;;;;;4.20;4.00;;;;;;;;;;6303246;28;20225;-82
2022/12/25 13:27:31;;;;;;;4.83;4.33;;;;;;;;;;6293324;28;20535;-85
2022/12/25 13:30:36;;;;;;;4.17;3.87;;;;;;;;;;6288621;28;20269;-83
2022/12/25 13:33:46;;;;;;;4.50;4.20;;;;;;;;;;6290312;28;20278;-84
2022/12/25 13:36:53;;;;;;;4.37;4.03;;;;;;;;;;6285610;28;20274;-83
2022/12/25 13:40:00;;;;;;;5.03;4.63;;;;;;;;;;6285519;28;20603;-83
2022/12/25 13:43:05;;;;;;;4.97;4.57;;;;;;;;;;6286162;28;20475;-85
2022/12/25 13:46:13;;;;;;;5.43;4.47;;;;;;;;;;6286635;28;20269;-84
2022/12/25 13:49:20;;;;;;;7.43;4.97;;;;;;;;;;6288786;28;20274;-85
2022/12/25 13:52:35;;;;;;;5.83;5.37;;;;;;;;;;6289330;28;20268;-83
2022/12/25 13:55:42;;;;;;;7.17;5.57;;;;;;;;;;6287442;28;20273;-83
2022/12/25 13:58:48;;;;;;;6.40;5.43;;;;;;;;;;6286241;28;20456;-83
2022/12/25 14:01:56;;;;;;;6.00;5.37;;;;;;;;;;6288338;28;20282;-83
2022/12/25 14:05:02;;;;;;;5.37;4.80;;;;;;;;;;6289749;28;20301;-82
2022/12/25 14:08:17;;;;;;;5.43;4.93;;;;;;;;;;6288882;28;20264;-83
2022/12/25 14:11:24;;;;;;;4.40;4.00;;;;;;;;;;6285668;28;20276;-85
2022/12/25 14:14:29;;;;;;;4.60;4.20;;;;;;;;;;6264457;28;20277;-83
2022/12/25 14:17:35;;;;;;;3.87;3.67;;;;;;;;;;6261961;28;20266;-82
2022/12/25 14:20:42;;;;;;;3.80;3.60;;;;;;;;;;6262988;28;20549;-83
2022/12/25 14:23:51;;;;;;;4.30;4.00;;;;;;;;;;6263654;28;20284;-84
2022/12/25 14:27:00;;;;;;;3.83;3.57;;;;;;;;;;6263328;28;20269;-83
2022/12/25 14:30:13;;;;;;;3.53;3.33;;;;;;;;;;6254171;28;20272;-83
2022/12/25 14:33:20;;;;;;;3.30;3.10;;;;;;;;;;6260987;28;20272;-83
2022/12/25 14:36:26;;;;;;;3.90;3.70;;;;;;;;;;6262143;28;20261;-83
2022/12/25 14:39:35;;;;;;;3.93;3.50;;;;;;;;;;6263243;28;20522;-83
2022/12/25 14:42:42;;;;;;;3.73;3.47;;;;;;;;;;6262975;28;20296;-83
2022/12/25 14:45:56;;;;;;;3.60;3.40;;;;;;;;;;6273134;28;20221;-83
2022/12/25 14:49:03;;;;;;;4.03;3.73;;;;;;;;;;6276633;28;20230;-82
2022/12/25 14:52:18;;;;;;;4.13;3.93;;;;;;;;;;6276639;28;20226;-82
2022/12/25 14:55:27;;;;;;;3.80;3.60;;;;;;;;;;6270962;28;20267;-83
2022/12/25 14:58:34;;;;;;;3.60;3.40;;;;;;;;;;6270890;28;20266;-83
2022/12/25 15:01:43;;;;;;;3.60;3.37;;;;;;;;;;6268728;28;20287;-84
2022/12/25 15:04:48;;;;;;;3.23;3.00;;;;;;;;;;6280791;28;20303;-83
2022/12/25 15:08:06;;;;;;;4.17;3.83;;;;;;;;;;6291047;28;20274;-84
2022/12/25 15:11:13;;;;;;;3.77;3.47;;;;;;;;;;6274047;28;20249;-84
2022/12/25 15:14:19;;;;;;;5.27;3.73;;;;;;;;;;6291637;28;20277;-83
2022/12/25 15:17:26;;;;;;;3.70;3.43;;;;;;;;;;6273686;28;20273;-83
2022/12/25 15:20:33;;;;;;;3.57;3.43;;;;;;;;;;6274239;28;20270;-83
2022/12/25 15:23:38;;;;;;;4.63;3.90;;;;;;;;;;6290348;28;20293;-83
2022/12/25 15:26:45;;;;;;;3.30;3.20;;;;;;;;;;6273004;28;20275;-84
2022/12/25 15:29:51;;;;;;;3.13;3.07;;;;;;;;;;6291631;28;20269;-84
2022/12/25 15:33:18;;;;;;;2.90;2.90;;;;;;;;;;6291487;28;20310;-84
2022/12/25 15:36:24;;;;;;;2.93;2.83;;;;;;;;;;6274775;28;20282;-85
2022/12/25 15:39:30;;;;;;;3.20;2.90;;;;;;;;;;6290585;28;20274;-83
2022/12/25 15:42:37;;;;;;;3.63;3.43;;;;;;;;;;6290380;28;20278;-84
2022/12/25 15:45:44;;;;;;;3.37;3.27;;;;;;;;;;6290872;28;20266;-84
2022/12/25 15:48:49;;;;;;;3.23;3.13;;;;;;;;;;6290845;28;20268;-84
2022/12/25 15:51:55;;;;;;;3.80;3.60;;;;;;;;;;6273656;28;20264;-83
2022/12/25 15:55:00;;;;;;;3.20;3.10;;;;;;;;;;6292982;28;20302;-86
2022/12/25 15:58:10;;;;;;;3.70;3.40;;;;;;;;;;6292799;28;20276;-84
2022/12/25 16:01:16;;;;;;;3.60;3.40;;;;;;;;;;6274315;28;20267;-83
2022/12/25 16:04:23;;;;;;;3.50;3.40;;;;;;;;;;6271008;28;20594;-84
2022/12/25 16:07:30;;;;;;;3.90;3.70;;;;;;;;;;6288182;28;20266;-83
2022/12/25 16:10:36;;;;;;;4.00;3.73;;;;;;;;;;6289831;28;20543;-85
2022/12/25 16:13:48;;;;;;;4.10;3.80;;;;;;;;;;6272218;28;20274;-83
2022/12/25 16:16:53;;;;;;;4.13;4.00;;;;;;;;;;6288768;28;20430;-84
2022/12/25 16:19:58;;;;;;;4.50;4.20;;;;;;;;;;6288049;28;20362;-84
2022/12/25 16:23:04;;;;;;;4.60;4.20;;;;;;;;;;6288143;28;20274;-84
2022/12/25 16:26:11;;;;;;;4.40;4.20;;;;;;;;;;6288560;28;20279;-83
2022/12/25 16:29:18;;;;;;;4.10;3.90;;;;;;;;;;6270523;28;20267;-83
2022/12/25 16:32:23;;;;;;;4.57;4.27;;;;;;;;;;6288135;28;20278;-84
2022/12/25 16:35:29;;;;;;;4.87;4.57;;;;;;;;;;6288564;28;20467;-85
2022/12/25 16:38:34;;;;;;;5.30;4.87;;;;;;;;;;6288098;28;20282;-84
2022/12/25 16:41:39;;;;;;;5.50;4.93;;;;;;;;;;6289401;28;20293;-85
2022/12/25 16:44:49;;;;;;;5.10;4.67;;;;;;;;;;6287378;28;20581;-85
2022/12/25 16:47:55;;;;;;;5.07;4.37;;;;;;;;;;6287494;28;20263;-84
2022/12/25 16:51:01;;;;;;;5.80;5.00;;;;;;;;;;6287861;28;20266;-85
2022/12/25 16:54:06;;;;;;;5.57;4.90;;;;;;;;;;6269854;28;20449;-84
2022/12/25 16:57:11;;;;;;;5.30;4.60;;;;;;;;;;6287150;28;20270;-84
2022/12/25 17:00:19;;;;;;;6.43;5.50;;;;;;;;;;6287275;28;20267;-85
2022/12/25 17:03:25;;;;;;;5.57;5.07;;;;;;;;;;6286455;28;20278;-86
2022/12/25 17:06:30;;;;;;;6.50;4.80;;;;;;;;;;6303569;28;20548;-83
2022/12/25 17:09:36;;;;;;;5.30;4.90;;;;;;;;;;6303431;28;20234;-83
2022/12/25 17:12:48;;;;;;;4.97;4.67;;;;;;;;;;6303976;28;20232;-84
2022/12/25 17:15:54;;;;;;;4.87;4.53;;;;;;;;;;6303911;28;20224;-84
2022/12/25 17:19:01;;;;;;;5.20;4.70;;;;;;;;;;6302610;28;20250;-84
2022/12/25 17:22:06;;;;;;;7.90;4.90;;;;;;;;;;6292296;28;20252;-84
2022/12/25 17:25:11;;;;;;;5.60;5.13;;;;;;;;;;6291315;28;20309;-84
2022/12/25 17:28:17;;;;;;;7.10;5.23;;;;;;;;;;6290012;28;20272;-84
2022/12/25 17:31:24;;;;;;;6.53;4.57;;;;;;;;;;6290749;28;20584;-84
2022/12/25 17:34:30;;;;;;;5.20;4.80;;;;;;;;;;6288491;28;20340;-84
2022/12/25 17:37:35;;;;;;;5.17;4.67;;;;;;;;;;6287383;28;20264;-85
2022/12/25 17:40:40;;;;;;;5.43;4.53;;;;;;;;;;6286864;28;20271;-85
2022/12/25 17:43:48;;;;;;;4.73;4.43;;;;;;;;;;6286655;28;20264;-85
2022/12/25 17:46:55;;;;;;;4.80;4.40;;;;;;;;;;6286574;28;20645;-85
2022/12/25 17:50:00;;;;;;;5.97;5.20;;;;;;;;;;6286529;28;20265;-85
2022/12/25 17:53:06;;;;;;;5.47;4.97;;;;;;;;;;6286557;28;20289;-85
2022/12/25 17:56:13;;;;;;;4.73;4.33;;;;;;;;;;6286676;28;20273;-84
2022/12/25 17:59:18;;;;;;;4.63;4.23;;;;;;;;;;6284900;28;20266;-85
2022/12/25 18:02:24;;;;;;;4.73;4.40;;;;;;;;;;6286369;28;20264;-84
2022/12/25 18:05:30;;;;;;;4.70;4.23;;;;;;;;;;6268381;28;20304;-85
2022/12/25 18:08:35;;;;;;;5.23;4.47;;;;;;;;;;6287303;28;20277;-85
2022/12/25 18:11:44;;;;;;;5.10;4.37;;;;;;;;;;6287144;28;20265;-84
2022/12/25 18:14:50;;;;;;;6.57;3.90;;;;;;;;;;6286531;28;20277;-84
2022/12/25 18:17:57;;;;;;;3.93;3.70;;;;;;;;;;6284503;28;20343;-85
2022/12/25 18:21:02;;;;;;;4.87;4.30;;;;;;;;;;6284967;28;20270;-85
2022/12/25 18:24:08;;;;;;;4.17;3.70;;;;;;;;;;6291529;28;20264;-83
2022/12/25 18:27:14;;;;;;;4.40;3.60;;;;;;;;;;6286209;28;20269;-84
2022/12/25 18:30:19;;;;;;;5.37;4.03;;;;;;;;;;6292209;28;20461;-84
2022/12/25 18:33:26;;;;;;;5.77;3.97;;;;;;;;;;6294963;28;20284;-85
2022/12/25 18:36:32;;;;;;;3.83;3.63;;;;;;;;;;6274208;28;20274;-85
2022/12/25 18:39:37;;;;;;;4.10;3.87;;;;;;;;;;6290817;28;20267;-85
2022/12/25 18:42:45;;;;;;;4.40;4.00;;;;;;;;;;6291188;28;20277;-85
2022/12/25 18:45:57;;;;;;;4.50;3.90;;;;;;;;;;6272637;28;20290;-85
2022/12/25 18:49:03;;;;;;;5.60;3.97;;;;;;;;;;6290741;28;20270;-86
2022/12/25 18:52:10;;;;;;;6.13;4.20;;;;;;;;;;6290273;28;20273;-86
2022/12/25 18:55:35;;;;;;;4.97;4.30;;;;;;;;;;6276251;28;20278;-86
2022/12/25 18:58:41;;;;;;;4.00;3.70;;;;;;;;;;6296986;28;20273;-84
2022/12/25 19:01:46;;;;;;;4.17;3.87;;;;;;;;;;6299205;28;20267;-84
2022/12/25 19:04:53;;;;;;;4.03;3.70;;;;;;;;;;6305608;28;20253;-84
2022/12/25 19:07:58;;;;;;;4.90;4.40;;;;;;;;;;6291850;28;20541;-85
2022/12/25 19:11:08;;;;;;;4.17;3.87;;;;;;;;;;6291112;28;20273;-85
2022/12/25 19:14:14;;;;;;;3.73;3.53;;;;;;;;;;6289843;28;20270;-85
2022/12/25 19:17:20;;;;;;;3.80;3.67;;;;;;;;;;6290695;28;20280;-87
2022/12/25 19:20:39;;;;;;;4.17;3.03;;;;;;;;;;6288927;28;20275;-85
2022/12/25 19:23:45;;;;;;;4.23;3.67;;;;;;;;;;6292311;28;20269;-85
2022/12/25 19:26:50;;;;;;;5.70;3.77;;;;;;;;;;6294539;28;20290;-85
2022/12/25 19:29:55;;;;;;;3.90;3.50;;;;;;;;;;6276649;28;20401;-85
2022/12/25 19:33:00;;;;;;;3.80;3.50;;;;;;;;;;6276798;28;20279;-87
2022/12/25 19:36:11;;;;;;;3.93;3.53;;;;;;;;;;6275751;28;20258;-86
2022/12/25 19:39:16;;;;;;;3.77;3.57;;;;;;;;;;6293348;28;20286;-87
2022/12/25 19:42:24;;;;;;;6.63;3.63;;;;;;;;;;6275011;28;20248;-86
2022/12/25 19:45:29;;;;;;;4.03;3.73;;;;;;;;;;6294067;28;20284;-86
2022/12/25 19:48:35;;;;;;;3.83;3.50;;;;;;;;;;6290919;28;20271;-87
2022/12/25 19:51:43;;;;;;;4.87;4.00;;;;;;;;;;6290258;28;20279;-85
2022/12/25 19:54:51;;;;;;;4.40;4.00;;;;;;;;;;6290384;28;20269;-87
2022/12/25 19:57:57;;;;;;;4.80;3.70;;;;;;;;;;6289493;28;20274;-88
2022/12/25 20:01:05;;;;;;;5.57;3.90;;;;;;;;;;6288676;28;20268;-86
2022/12/25 20:04:11;;;;;;;4.50;3.77;;;;;;;;;;6276335;28;20302;-86
2022/12/25 20:07:18;;;;;;;4.50;4.10;;;;;;;;;;6296906;28;20272;-86
2022/12/25 20:10:23;;;;;;;5.47;4.10;;;;;;;;;;6282833;28;20259;-85
2022/12/25 20:13:28;;;;;;;4.10;3.90;;;;;;;;;;6273452;28;20296;-85
2022/12/25 20:16:35;;;;;;;4.60;4.30;;;;;;;;;;6273084;28;20426;-87
2022/12/25 20:19:41;;;;;;;5.13;3.73;;;;;;;;;;6288563;28;20286;-86
2022/12/25 20:22:47;;;;;;;4.23;3.87;;;;;;;;;;6288289;28;20273;-86
2022/12/25 20:25:53;;;;;;;4.50;4.00;;;;;;;;;;6270792;28;20297;-86